Time;durP1;ratioP1;P1;durP2;ratioP2;P2;SDS_P1;SDS_P2;PMS_P1;PMS_P2;Temp;Humidity;BMP_temperature;BMP_pressure;BME280_temperature;BME280_humidity;BME280_pressure;Samples;Min_cycle;Max_cycle;Signal;HPM_P1;HPM_P2
2021/04/15 00:00:22;;;;;;;5.03;2.53;;;;;;;6.57;36.66;102580.06;3580146;40;20044;-82
2021/04/15 00:02:50;;;;;;;5.38;3.10;;;;;;;6.55;36.61;102585.56;3580878;40;20036;-82
2021/04/15 00:05:28;;;;;;;3.28;2.35;;;;;;;6.54;36.75;102574.75;3581824;40;20041;-83
2021/04/15 00:07:56;;;;;;;4.72;2.60;;;;;;;6.48;36.43;102585.91;3581235;40;20029;-82
2021/04/15 00:10:27;;;;;;;5.60;2.90;;;;;;;6.46;36.53;102574.19;3580750;40;20034;-82
2021/04/15 00:12:54;;;;;;;5.40;2.67;;;;;;;6.40;36.33;102578.06;3580649;40;20037;-82
2021/04/15 00:15:22;;;;;;;4.75;3.03;;;;;;;6.37;36.55;102578.19;3580807;40;20285;-82
2021/04/15 00:17:51;;;;;;;3.78;2.50;;;;;;;6.36;36.70;102573.69;3580893;40;20369;-82
2021/04/15 00:20:21;;;;;;;4.25;2.47;;;;;;;6.32;36.47;102570.22;3581832;40;20380;-82
2021/04/15 00:22:49;;;;;;;5.95;2.78;;;;;;;6.28;36.53;102571.28;3582369;40;20037;-82
2021/04/15 00:25:16;;;;;;;4.47;2.90;;;;;;;6.28;36.69;102575.84;3581965;40;20025;-82
2021/04/15 00:27:45;;;;;;;3.95;2.70;;;;;;;6.26;36.78;102575.91;3581433;40;20026;-82
2021/04/15 00:30:13;;;;;;;4.07;2.50;;;;;;;6.27;37.05;102571.34;3581685;40;20106;-82
2021/04/15 00:32:43;;;;;;;4.22;2.50;;;;;;;6.25;36.80;102574.13;3580210;40;20396;-81
2021/04/15 00:35:13;;;;;;;4.00;2.50;;;;;;;6.25;37.14;102567.84;3581823;40;20033;-82
2021/04/15 00:37:40;;;;;;;5.35;2.97;;;;;;;6.23;36.88;102573.31;3572596;40;20028;-82
2021/04/15 00:40:09;;;;;;;5.00;2.80;;;;;;;6.22;36.90;102566.13;3581050;40;20030;-82
2021/04/15 00:42:37;;;;;;;3.90;2.63;;;;;;;6.21;37.00;102561.63;3591356;40;20035;-82
2021/04/15 00:45:09;;;;;;;6.38;2.97;;;;;;;6.22;37.07;102568.84;3591483;40;20056;-82
2021/04/15 00:47:38;;;;;;;5.40;3.10;;;;;;;6.21;37.01;102560.75;3581571;40;20069;-82
2021/04/15 00:50:08;;;;;;;5.03;3.10;;;;;;;6.20;37.21;102561.69;3581792;40;20021;-82
2021/04/15 00:52:47;;;;;;;4.78;2.97;;;;;;;6.18;37.19;102561.75;3581921;40;20029;-82
2021/04/15 00:55:19;;;;;;;3.70;2.70;;;;;;;6.16;37.25;102563.66;3581048;40;20107;-82
2021/04/15 00:57:48;;;;;;;4.22;2.88;;;;;;;6.15;36.89;102561.88;3572490;40;20297;-82
2021/04/15 01:00:18;;;;;;;4.57;2.72;;;;;;;6.14;36.99;102553.78;3581694;40;20396;-81
2021/04/15 01:02:45;;;;;;;4.53;2.88;;;;;;;6.12;36.96;102552.97;3581947;40;20029;-83
2021/04/15 01:05:18;;;;;;;5.32;3.38;;;;;;;6.12;37.40;102548.41;3580918;40;20033;-83
2021/04/15 01:07:48;;;;;;;6.07;3.38;;;;;;;6.07;37.13;102549.56;3580934;40;20286;-81
2021/04/15 01:10:15;;;;;;;6.38;3.65;;;;;;;6.08;36.82;102548.63;3581704;40;20032;-82
2021/04/15 01:13:03;;;;;;;5.55;3.35;;;;;;;6.08;37.56;102546.78;3581009;40;20033;-83
2021/04/15 01:15:42;;;;;;;4.75;3.30;;;;;;;6.06;37.28;102551.38;3580393;40;20065;-82
2021/04/15 01:18:16;;;;;;;5.22;3.08;;;;;;;6.03;37.49;102550.63;3580698;40;20045;-83
2021/04/15 01:21:11;;;;;;;4.75;3.40;;;;;;;6.01;37.32;102544.38;3572866;40;20037;-82
2021/04/15 01:23:50;;;;;;;4.32;3.10;;;;;;;5.96;37.15;102542.72;3579104;40;20371;-82
2021/04/15 01:26:53;;;;;;;5.18;3.50;;;;;;;5.97;37.34;102546.31;3581343;40;20045;-86
2021/04/15 01:29:29;;;;;;;4.82;3.40;;;;;;;5.91;37.08;102546.56;3581756;40;20022;-82
2021/04/15 01:32:10;;;;;;;5.57;3.17;;;;;;;5.92;37.36;102545.63;3580831;40;20048;-82
2021/04/15 01:34:42;;;;;;;;;;;;;;;5.64;37.68;102548.53;3581467;40;20278;-82
2021/04/15 01:37:24;;;;;;;5.07;3.33;;;;;;;5.85;37.40;102549.50;3589148;40;19986;-82
2021/04/15 01:40:00;;;;;;;6.60;3.63;;;;;;;5.83;37.13;102552.31;3582125;40;20036;-82
2021/04/15 01:42:33;;;;;;;4.38;3.20;;;;;;;5.82;36.94;102541.50;3582439;40;20036;-82
2021/04/15 01:45:08;;;;;;;5.03;3.13;;;;;;;5.81;37.42;102547.88;3585057;40;20122;-81
2021/04/15 01:47:51;;;;;;;4.93;3.17;;;;;;;5.79;37.68;102555.19;3582841;40;20044;-81
2021/04/15 01:50:24;;;;;;;4.72;2.95;;;;;;;5.77;37.29;102554.38;3581907;40;20051;-82
2021/04/15 01:53:01;;;;;;;5.47;3.28;;;;;;;5.75;37.53;102553.56;3582625;40;20068;-82
2021/04/15 01:55:35;;;;;;;5.40;2.95;;;;;;;5.71;37.57;102555.50;3582968;40;20033;-82
2021/04/15 01:58:13;;;;;;;5.13;3.30;;;;;;;5.71;37.58;102558.22;3590259;40;20290;-82
2021/04/15 02:00:49;;;;;;;4.72;3.03;;;;;;;5.69;37.59;102559.22;3583058;40;20033;-83
2021/04/15 02:03:23;;;;;;;5.07;3.50;;;;;;;5.65;37.54;102550.31;3582932;40;20421;-82
2021/04/15 02:05:56;;;;;;;5.28;3.30;;;;;;;5.62;37.48;102550.44;3582812;40;20033;-82
2021/04/15 02:08:26;;;;;;;5.28;3.60;;;;;;;5.59;37.40;102554.13;3583146;40;20036;-83
2021/04/15 02:10:57;;;;;;;5.80;3.80;;;;;;;5.60;37.52;102555.91;3582911;40;20029;-82
2021/04/15 02:13:26;;;;;;;5.35;3.47;;;;;;;5.59;37.63;102559.56;3582969;40;20043;-82
2021/04/15 02:16:00;;;;;;;5.72;3.65;;;;;;;5.57;37.50;102553.34;3582610;40;20025;-82
2021/04/15 02:18:43;;;;;;;5.05;3.50;;;;;;;5.56;37.82;102556.97;3581764;40;20026;-83
2021/04/15 02:21:18;;;;;;;7.03;3.67;;;;;;;5.52;37.73;102554.44;3581400;40;20037;-83
2021/04/15 02:23:49;;;;;;;5.90;3.70;;;;;;;5.51;37.81;102561.69;3583063;40;20057;-83
2021/04/15 02:26:21;;;;;;;5.25;3.25;;;;;;;5.49;37.40;102558.16;3582838;40;20060;-84
2021/04/15 02:28:55;;;;;;;6.15;3.45;;;;;;;5.48;37.77;102556.41;3583006;40;20084;-83
2021/04/15 02:31:26;;;;;;;5.68;3.60;;;;;;;5.45;37.72;102563.72;3582025;40;20088;-82
2021/04/15 02:34:01;;;;;;;6.43;3.70;;;;;;;5.45;37.92;102559.19;3583003;40;20040;-83
2021/04/15 02:36:36;;;;;;;5.28;3.53;;;;;;;5.43;37.91;102558.34;3582803;40;20033;-83
2021/04/15 02:39:09;;;;;;;5.00;3.25;;;;;;;5.40;37.55;102553.06;3573419;40;20355;-83
2021/04/15 02:41:39;;;;;;;4.90;3.38;;;;;;;5.39;37.63;102556.72;3582760;40;20370;-82
2021/04/15 02:44:10;;;;;;;5.70;3.22;;;;;;;5.38;37.60;102559.47;3582810;40;20374;-82
2021/04/15 02:46:45;;;;;;;5.63;3.35;;;;;;;5.36;37.89;102556.81;3581742;40;20037;-82
2021/04/15 02:49:15;;;;;;;5.30;3.50;;;;;;;5.33;37.74;102564.19;3582077;40;20029;-82
2021/04/15 02:51:45;;;;;;;7.18;3.85;;;;;;;5.32;37.76;102565.13;3582496;40;20026;-82
2021/04/15 02:54:18;;;;;;;5.95;3.33;;;;;;;5.29;37.95;102560.69;3583215;40;20394;-82
2021/04/15 02:56:51;;;;;;;7.53;4.30;;;;;;;5.26;38.02;102568.97;3582601;40;20033;-83
2021/04/15 02:59:22;;;;;;;5.82;3.75;;;;;;;5.27;37.91;102576.16;3582766;40;20366;-82
2021/04/15 03:01:58;;;;;;;6.28;4.18;;;;;;;5.25;37.93;102572.63;3581868;40;20060;-82
2021/04/15 03:04:25;;;;;;;6.88;3.90;;;;;;;5.22;37.82;102573.63;3581943;40;20032;-83
2021/04/15 03:06:58;;;;;;;5.72;3.63;;;;;;;5.21;37.84;102569.13;3581746;40;20030;-82
2021/04/15 03:09:27;;;;;;;6.05;3.85;;;;;;;5.19;37.61;102567.41;3573153;40;20025;-83
2021/04/15 03:11:59;;;;;;;6.57;4.15;;;;;;;5.19;37.92;102561.97;3582584;40;20029;-82
2021/04/15 03:14:32;;;;;;;6.43;4.05;;;;;;;5.16;38.15;102564.81;3583131;40;20041;-82
2021/04/15 03:17:04;;;;;;;7.13;3.65;;;;;;;5.14;38.06;102567.59;3581741;40;20041;-83
2021/04/15 03:19:37;;;;;;;5.88;4.05;;;;;;;5.14;38.06;102566.69;3573290;40;20036;-82
2021/04/15 03:22:16;;;;;;;7.88;4.13;;;;;;;5.10;38.23;102560.47;3582653;40;20286;-83
2021/04/15 03:24:47;;;;;;;6.63;4.00;;;;;;;5.09;37.79;102569.59;3591439;40;20118;-83
2021/04/15 03:27:20;;;;;;;6.15;4.07;;;;;;;5.09;38.45;102571.41;3583221;40;20315;-83
2021/04/15 03:29:53;;;;;;;6.40;4.15;;;;;;;5.06;37.91;102566.97;3591274;40;20036;-83
2021/04/15 03:32:28;;;;;;;6.07;4.00;;;;;;;5.04;38.35;102571.56;3591958;40;20059;-83
2021/04/15 03:35:03;;;;;;;6.80;4.30;;;;;;;5.03;37.97;102567.06;3591689;40;20366;-83
2021/04/15 03:37:36;;;;;;;6.70;4.07;;;;;;;5.02;37.85;102568.00;3583785;40;20041;-83
2021/04/15 03:40:05;;;;;;;;;;;;;;;4.77;38.43;102569.84;3592336;40;20040;-83
2021/04/15 03:42:38;;;;;;;6.38;3.83;;;;;;;4.95;37.74;102579.13;3591562;40;19936;-83
2021/04/15 03:45:13;;;;;;;4.63;2.97;;;;;;;4.89;37.98;102579.38;3592492;40;20065;-83
2021/04/15 03:47:46;;;;;;;4.80;3.60;;;;;;;4.92;38.25;102577.44;3592431;40;20053;-83
2021/04/15 03:50:18;;;;;;;5.00;3.90;;;;;;;4.90;38.19;102579.31;3583457;40;20040;-83
2021/04/15 03:52:55;;;;;;;6.40;3.80;;;;;;;4.91;38.29;102581.09;3582597;40;20421;-83
2021/04/15 03:55:27;;;;;;;5.65;3.95;;;;;;;4.88;38.29;102580.31;3581209;40;20040;-82
2021/04/15 03:57:59;;;;;;;6.68;4.68;;;;;;;4.84;38.22;102566.88;3573268;40;20025;-82
2021/04/15 04:00:32;;;;;;;6.72;4.95;;;;;;;4.86;38.24;102577.63;3581596;40;20036;-82
2021/04/15 04:07:30;;;;;;;;;;;;;;;4.51;38.71;102575.28;3582315;40;20033;-83
2021/04/15 04:10:01;;;;;;;5.63;3.70;;;;;;;4.71;38.22;102572.75;3581465;40;19941;-82
2021/04/15 04:12:35;;;;;;;7.38;4.30;;;;;;;4.74;38.38;102578.09;3581027;40;20393;-82
2021/04/15 04:15:09;;;;;;;5.45;4.05;;;;;;;4.73;38.50;102571.78;3581834;40;20037;-82
2021/04/15 04:17:46;;;;;;;7.80;4.45;;;;;;;4.70;38.35;102573.69;3581242;40;20057;-82
2021/04/15 04:20:16;;;;;;;6.43;4.50;;;;;;;4.68;38.25;102578.31;3582387;40;20037;-82
2021/04/15 04:22:50;;;;;;;6.85;4.35;;;;;;;4.68;38.41;102578.31;3582275;40;20283;-81
2021/04/15 04:25:27;;;;;;;8.93;5.00;;;;;;;4.67;38.53;102587.38;3581942;40;20065;-81
2021/04/15 04:27:59;;;;;;;7.18;4.68;;;;;;;4.64;38.27;102577.50;3581889;40;20029;-81
2021/04/15 04:30:37;;;;;;;5.60;4.20;;;;;;;4.63;38.64;102581.16;3581080;40;20410;-81
2021/04/15 04:33:07;;;;;;;6.47;4.43;;;;;;;4.61;38.35;102577.59;3582357;40;20142;-82
2021/04/15 04:35:41;;;;;;;6.25;4.40;;;;;;;4.61;38.60;102584.84;3582370;40;20037;-82
2021/04/15 04:38:18;;;;;;;6.82;4.30;;;;;;;4.59;38.18;102582.22;3581872;40;20040;-79
2021/04/15 04:40:50;;;;;;;5.82;4.28;;;;;;;4.55;38.16;102594.06;3580233;40;20263;-80
2021/04/15 04:43:23;;;;;;;7.63;4.75;;;;;;;4.57;38.75;102596.75;3588981;40;20025;-80
2021/04/15 04:45:58;;;;;;;5.38;4.10;;;;;;;4.56;38.60;102601.28;3580366;40;20045;-80
2021/04/15 04:48:35;;;;;;;6.70;4.38;;;;;;;4.55;38.77;102599.50;3581572;40;20374;-81
2021/04/15 04:51:08;;;;;;;7.65;4.60;;;;;;;4.54;38.62;102602.25;3580508;40;20029;-80
2021/04/15 04:53:38;;;;;;;6.78;4.50;;;;;;;4.53;38.54;102589.63;3581497;40;20029;-81
2021/04/15 04:56:21;;;;;;;6.97;4.32;;;;;;;4.54;38.72;102602.25;3581476;40;20029;-80
2021/04/15 04:58:51;;;;;;;6.72;4.43;;;;;;;4.48;38.63;102606.06;3580992;40;20029;-81
2021/04/15 05:01:19;;;;;;;6.82;4.40;;;;;;;4.48;38.50;102589.81;3581827;40;20339;-81
2021/04/15 05:03:57;;;;;;;6.75;4.47;;;;;;;4.48;38.88;102605.19;3581823;40;20043;-80
2021/04/15 05:06:27;;;;;;;5.88;4.18;;;;;;;4.47;38.50;102607.00;3581390;40;20085;-80
2021/04/15 05:09:01;;;;;;;6.55;4.65;;;;;;;4.48;39.19;102608.78;3580430;40;20026;-80
2021/04/15 05:11:31;;;;;;;5.55;4.10;;;;;;;4.47;38.80;102612.41;3581205;40;20040;-81
2021/04/15 05:13:59;;;;;;;6.60;4.78;;;;;;;4.48;38.72;102619.63;3581975;40;20369;-80
2021/04/15 05:16:39;;;;;;;7.35;4.68;;;;;;;4.48;38.88;102618.72;3581365;40;20055;-81
2021/04/15 05:19:07;;;;;;;7.15;4.63;;;;;;;4.45;38.85;102615.16;3580554;40;20029;-80
2021/04/15 05:21:38;;;;;;;6.63;4.30;;;;;;;4.48;38.94;102616.91;3589951;40;20036;-80
2021/04/15 05:24:13;;;;;;;6.82;4.65;;;;;;;4.52;39.26;102620.41;3581347;40;20032;-80
2021/04/15 05:26:42;;;;;;;6.47;4.60;;;;;;;4.52;39.26;102625.84;3579938;40;20029;-80
2021/04/15 05:29:16;;;;;;;8.23;5.03;;;;;;;4.55;39.72;102626.59;3580728;40;20061;-80
2021/04/15 05:31:46;;;;;;;8.85;4.78;;;;;;;4.56;39.15;102625.66;3580384;40;20025;-81
2021/04/15 05:34:22;;;;;;;7.45;4.53;;;;;;;4.62;39.82;102630.00;3572150;40;20090;-82
2021/04/15 05:36:52;;;;;;;7.07;4.95;;;;;;;4.62;39.48;102625.44;3580727;40;20029;-81
2021/04/15 05:39:21;;;;;;;7.00;4.45;;;;;;;4.65;39.16;102625.38;3580977;40;20037;-81
2021/04/15 05:41:58;;;;;;;8.23;4.88;;;;;;;4.67;39.65;102623.50;3581362;40;20061;-81
2021/04/15 05:44:33;;;;;;;6.97;4.45;;;;;;;4.71;39.77;102624.25;3581373;40;20033;-81
2021/04/15 05:47:03;;;;;;;6.70;4.43;;;;;;;4.73;39.50;102635.94;3581200;40;20025;-80
2021/04/15 05:49:36;;;;;;;7.68;4.70;;;;;;;4.75;39.50;102632.25;3580516;40;20040;-81
2021/04/15 05:52:23;;;;;;;7.57;5.00;;;;;;;4.77;39.87;102638.50;3579992;40;20378;-81
2021/04/15 05:54:54;;;;;;;7.47;4.13;;;;;;;4.78;39.59;102640.25;3587938;40;20334;-80
2021/04/15 05:57:27;;;;;;;8.48;4.90;;;;;;;4.82;39.69;102630.22;3590079;40;20039;-80
2021/04/15 06:00:04;;;;;;;7.00;4.68;;;;;;;4.83;40.00;102638.31;3581976;40;20106;-80
2021/04/15 06:02:54;;;;;;;7.47;4.97;;;;;;;4.88;40.13;102631.81;3589362;40;20024;-81
2021/04/15 06:05:27;;;;;;;6.13;4.53;;;;;;;4.87;40.21;102636.34;3590545;40;20060;-78
2021/04/15 06:07:58;;;;;;;7.70;4.57;;;;;;;4.91;39.78;102634.44;3590418;40;20033;-80
2021/04/15 06:10:30;;;;;;;7.53;5.63;;;;;;;4.93;39.71;102636.16;3589869;40;20133;-80
2021/04/15 06:13:04;;;;;;;8.25;4.88;;;;;;;4.95;39.81;102630.66;3590393;40;20106;-78
2021/04/15 06:15:35;;;;;;;7.57;4.40;;;;;;;4.98;39.83;102638.72;3585068;40;20037;-80
2021/04/15 06:18:11;;;;;;;8.52;5.28;;;;;;;5.00;39.93;102642.25;3590161;40;20035;-82
2021/04/15 06:20:42;;;;;;;8.10;4.78;;;;;;;5.03;39.62;102644.84;3589776;40;20036;-79
2021/04/15 06:23:17;;;;;;;7.80;4.68;;;;;;;5.02;40.05;102643.97;3589042;40;20036;-80
2021/04/15 06:25:48;;;;;;;9.68;5.32;;;;;;;5.07;40.01;102644.69;3590613;40;20408;-82
2021/04/15 06:28:20;;;;;;;7.38;4.85;;;;;;;5.11;40.18;102640.03;3591490;40;20033;-83
2021/04/15 06:31:11;;;;;;;8.70;5.13;;;;;;;5.15;40.32;102645.31;3592639;40;20036;-80
2021/04/15 06:33:39;;;;;;;;;;;;;;;4.93;40.77;102644.31;3590176;40;20070;-81
2021/04/15 06:36:15;;;;;;;7.82;4.85;;;;;;;5.18;40.58;102642.47;3581706;40;19933;-82
2021/04/15 06:38:48;;;;;;;10.13;4.90;;;;;;;5.27;40.50;102649.41;3582132;40;20029;-83
2021/04/15 06:41:48;;;;;;;8.02;4.95;;;;;;;5.33;40.29;102646.50;3580460;40;20043;-81
2021/04/15 06:45:00;;;;;;;8.38;5.43;;;;;;;5.39;40.49;102646.25;3598641;40;20373;-80
2021/04/15 06:47:50;;;;;;;7.72;5.15;;;;;;;5.46;40.67;102649.63;3545618;40;20058;-80
2021/04/15 06:50:25;;;;;;;7.78;4.72;;;;;;;5.50;40.35;102648.63;3550238;40;20380;-80
2021/04/15 06:53:13;;;;;;;8.55;5.32;;;;;;;5.60;40.85;102647.31;3542814;40;20045;-80
2021/04/15 06:55:57;;;;;;;8.65;5.18;;;;;;;5.69;40.83;102651.53;3550722;40;20112;-80
2021/04/15 06:58:40;;;;;;;9.18;5.03;;;;;;;5.80;40.82;102652.03;3560448;40;20030;-82
2021/04/15 07:01:38;;;;;;;9.90;5.55;;;;;;;5.89;40.73;102647.13;3553268;40;20407;-83
2021/04/15 07:04:12;;;;;;;9.57;5.18;;;;;;;6.03;40.78;102640.25;3550810;40;22007;-83
2021/04/15 07:06:53;;;;;;;8.40;5.43;;;;;;;6.16;40.74;102647.00;3552374;40;21910;-83
2021/04/15 07:09:57;;;;;;;8.85;5.43;;;;;;;6.24;40.34;102648.47;3552670;40;20434;-85
2021/04/15 07:12:56;;;;;;;9.07;5.20;;;;;;;6.40;40.24;102642.41;3534429;40;20035;-83
2021/04/15 07:15:39;;;;;;;9.50;5.55;;;;;;;6.53;40.34;102640.94;3551934;40;20039;-83
2021/04/15 07:18:33;;;;;;;;;;;;;;;6.35;40.52;102648.03;3551909;40;20034;-84
2021/04/15 07:21:13;;;;;;;8.35;4.88;;;;;;;6.72;40.01;102647.41;3531851;40;19973;-81
2021/04/15 07:24:32;;;;;;;7.93;4.85;;;;;;;6.83;39.72;102639.66;3562819;40;20033;-79
2021/04/15 07:27:51;;;;;;;7.05;4.35;;;;;;;6.93;39.69;102648.31;3535372;40;20101;-80
2021/04/15 07:31:05;;;;;;;10.40;4.93;;;;;;;7.05;39.31;102654.19;3582497;40;20029;-85
2021/04/15 07:34:04;;;;;;;8.93;5.40;;;;;;;7.17;39.12;102649.13;3582316;40;20029;-82
2021/04/15 07:36:43;;;;;;;9.20;5.07;;;;;;;7.26;39.30;102646.91;3583266;40;20033;-82
2021/04/15 07:39:33;;;;;;;8.18;4.32;;;;;;;7.36;39.07;102645.53;3591241;40;20114;-81
2021/04/15 07:42:32;;;;;;;9.95;4.82;;;;;;;7.45;38.38;102649.69;3572878;40;20373;-82
2021/04/15 07:45:07;;;;;;;8.80;4.13;;;;;;;7.53;38.90;102652.06;3582817;40;20033;-84
2021/04/15 07:48:10;;;;;;;6.22;3.55;;;;;;;7.61;38.40;102648.03;3591400;40;20371;-80
2021/04/15 07:51:17;;;;;;;7.63;3.78;;;;;;;7.68;38.62;102660.44;3582385;40;20044;-83
2021/04/15 07:54:17;;;;;;;5.82;3.83;;;;;;;7.81;38.44;102658.03;3582460;40;20114;-83
2021/04/15 07:57:15;;;;;;;7.53;4.35;;;;;;;7.91;38.18;102658.47;3582461;40;20035;-80
2021/04/15 08:00:11;;;;;;;7.50;4.50;;;;;;;8.03;38.23;102655.19;3582402;40;20114;-85
2021/04/15 08:02:52;;;;;;;7.47;4.20;;;;;;;8.11;38.01;102648.41;3581933;40;20025;-85
2021/04/15 08:05:39;;;;;;;7.50;3.75;;;;;;;8.20;37.79;102656.16;3584007;40;20079;-86
2021/04/15 08:08:40;;;;;;;10.00;3.90;;;;;;;8.28;36.96;102657.63;3582441;40;20271;-83
2021/04/15 08:11:30;;;;;;;8.90;4.35;;;;;;;8.37;36.80;102658.06;3567715;40;20025;-84
2021/04/15 08:14:16;;;;;;;8.02;4.10;;;;;;;8.45;36.99;102650.44;3583483;40;20364;-81
2021/04/15 08:16:57;;;;;;;6.80;3.40;;;;;;;8.52;36.72;102657.34;3588859;40;20033;-82
2021/04/15 08:19:58;;;;;;;5.30;3.10;;;;;;;8.55;35.74;102650.88;3581918;40;20029;-85
2021/04/15 08:22:41;;;;;;;5.22;2.67;;;;;;;8.63;35.17;102659.56;3583858;40;20036;-85
2021/04/15 08:25:18;;;;;;;3.80;2.20;;;;;;;8.64;34.82;102656.72;3586050;40;20252;-85
2021/04/15 08:28:14;;;;;;;6.00;2.55;;;;;;;8.64;34.79;102662.19;3584581;40;20040;-83
2021/04/15 08:31:06;;;;;;;4.60;2.70;;;;;;;8.62;34.09;102655.94;3581589;40;20321;-83
2021/04/15 08:33:49;;;;;;;5.00;2.25;;;;;;;8.61;34.32;102659.63;3582355;40;20138;-81
2021/04/15 08:36:39;;;;;;;6.07;2.63;;;;;;;8.54;34.29;102658.16;3580824;40;20079;-79
2021/04/15 08:39:23;;;;;;;5.65;3.00;;;;;;;8.53;34.24;102663.69;3583053;40;20065;-82
2021/04/15 08:42:14;;;;;;;6.80;3.05;;;;;;;8.47;33.81;102666.72;3581391;40;20049;-82
2021/04/15 08:45:22;;;;;;;5.53;3.10;;;;;;;8.44;34.49;102669.59;3582125;40;20033;-83
2021/04/15 08:48:16;;;;;;;5.38;2.72;;;;;;;8.42;34.40;102663.28;3583161;40;20033;-85
2021/04/15 08:50:57;;;;;;;5.05;2.97;;;;;;;8.42;34.44;102668.75;3581500;40;20033;-85
2021/04/15 08:54:12;;;;;;;5.28;2.60;;;;;;;8.37;34.39;102673.53;3583323;40;20048;-84
2021/04/15 08:56:47;;;;;;;5.03;2.70;;;;;;;8.42;34.27;102672.34;3541021;40;20043;-80
2021/04/15 08:59:28;;;;;;;5.60;2.67;;;;;;;8.45;34.16;102683.16;3579883;40;20026;-83
2021/04/15 09:02:07;;;;;;;4.88;2.10;;;;;;;8.45;33.96;102669.53;3582632;40;20037;-83
2021/04/15 09:04:50;;;;;;;3.53;1.70;;;;;;;8.44;32.65;102672.31;3581757;40;20061;-88
2021/04/15 09:07:22;;;;;;;3.27;1.43;;;;;;;8.41;33.73;102678.75;3582847;40;20037;-82
2021/04/15 09:10:00;;;;;;;4.00;1.70;;;;;;;8.43;33.23;102673.25;3581785;40;20065;-82
2021/04/15 09:12:51;;;;;;;4.45;1.70;;;;;;;8.40;33.04;102668.81;3580654;40;20371;-82
2021/04/15 09:15:27;;;;;;;3.38;1.50;;;;;;;8.36;33.19;102672.66;3585593;40;20069;-80
2021/04/15 09:17:59;;;;;;;3.17;1.45;;;;;;;8.32;32.90;102675.59;3581344;40;20037;-79
2021/04/15 09:20:35;;;;;;;2.40;1.45;;;;;;;8.34;33.03;102676.41;3580946;40;20275;-83
2021/04/15 09:23:26;;;;;;;3.90;2.10;;;;;;;8.29;32.79;102679.38;3580390;40;20025;-80
2021/04/15 09:26:06;;;;;;;4.85;2.17;;;;;;;8.25;32.79;102672.28;3583556;40;20062;-85
2021/04/15 09:28:38;;;;;;;5.10;2.35;;;;;;;8.23;33.16;102674.19;3583063;40;20037;-83
2021/04/15 09:31:15;;;;;;;5.20;1.98;;;;;;;8.21;33.13;102676.13;3581978;40;20041;-84
2021/04/15 09:34:20;;;;;;;6.15;2.47;;;;;;;8.18;32.93;102676.25;3581591;40;20040;-85
2021/04/15 09:37:00;;;;;;;4.18;2.03;;;;;;;8.18;32.80;102676.25;3582080;40;20037;-83
2021/04/15 09:39:48;;;;;;;3.60;2.10;;;;;;;8.17;33.03;102669.91;3581507;40;20029;-84
2021/04/15 09:42:33;;;;;;;5.47;2.28;;;;;;;8.25;33.35;102666.81;3582097;40;20115;-85
2021/04/15 09:45:21;;;;;;;2.90;1.80;;;;;;;8.30;33.26;102661.16;3583875;40;20041;-85
2021/04/15 09:48:14;;;;;;;4.00;1.60;;;;;;;8.31;32.59;102666.56;3582514;40;20724;-83
2021/04/15 09:50:50;;;;;;;4.75;1.85;;;;;;;8.39;32.22;102672.53;3584832;40;20230;-84
2021/04/15 09:56:51;;;;;;;3.03;1.50;;;;;;;8.45;32.53;102663.19;3582212;40;20112;-84
2021/04/15 09:59:28;;;;;;;5.00;1.85;;;;;;;8.53;32.36;102664.56;3575799;40;20029;-83
2021/04/15 10:02:01;;;;;;;4.78;1.70;;;;;;;8.58;32.66;102661.59;3584251;40;20022;-85
2021/04/15 10:04:40;;;;;;;4.38;1.88;;;;;;;8.66;32.00;102658.50;3582886;40;20041;-81
2021/04/15 10:07:12;;;;;;;4.00;1.80;;;;;;;8.67;32.52;102661.16;3587457;40;20028;-81
2021/04/15 10:10:05;;;;;;;4.10;2.10;;;;;;;8.71;31.38;102651.00;3591400;40;20502;-84
2021/04/15 10:12:52;;;;;;;3.47;2.10;;;;;;;8.76;31.20;102652.50;3590587;40;20029;-84
2021/04/15 10:15:42;;;;;;;4.43;2.20;;;;;;;8.79;30.21;102651.47;3582942;40;20041;-85
2021/04/15 10:18:30;;;;;;;3.97;2.38;;;;;;;8.89;30.92;102650.91;3586435;40;20025;-85
2021/04/15 10:21:25;;;;;;;3.33;2.10;;;;;;;8.93;31.54;102646.19;3582826;40;20073;-81
2021/04/15 10:24:09;;;;;;;3.75;2.00;;;;;;;9.04;31.60;102648.38;3584601;40;20372;-84
2021/04/15 10:27:09;;;;;;;3.58;2.20;;;;;;;9.08;31.37;102647.25;3584453;40;20044;-83
2021/04/15 10:30:15;;;;;;;4.25;2.13;;;;;;;9.14;31.48;102645.06;3583266;40;20271;-84
2021/04/15 10:33:25;;;;;;;4.78;2.42;;;;;;;9.21;31.50;102638.38;3573603;40;20301;-84
2021/04/15 10:36:18;;;;;;;3.45;2.05;;;;;;;9.31;32.03;102639.63;3581022;40;20064;-80
2021/04/15 10:39:15;;;;;;;2.67;1.67;;;;;;;9.40;31.30;102625.47;3582454;40;20290;-86
2021/04/15 10:42:22;;;;;;;3.00;1.90;;;;;;;9.50;31.19;102633.19;3583676;40;20025;-83
2021/04/15 10:45:31;;;;;;;2.92;1.90;;;;;;;9.63;30.67;102631.56;3583541;40;20026;-82
2021/04/15 10:48:24;;;;;;;5.07;2.35;;;;;;;9.76;30.30;102627.22;3558492;40;20018;-84
2021/04/15 10:50:54;;;;;;;;;;;;;;;9.59;31.89;102635.41;3583227;40;20049;-83
2021/04/15 10:53:46;;;;;;;3.83;2.08;;;;;;;9.92;30.70;102625.41;3582046;40;19943;-82
2021/04/15 10:56:34;;;;;;;5.90;2.45;;;;;;;10.05;30.53;102628.31;3582454;40;20030;-81
2021/04/15 10:59:14;;;;;;;3.20;2.38;;;;;;;10.12;30.68;102621.56;3580713;40;20037;-83
2021/04/15 11:02:16;;;;;;;4.43;2.70;;;;;;;10.15;29.95;102622.25;3600191;40;20032;-84
2021/04/15 11:04:44;;;;;;;3.90;2.70;;;;;;;10.19;31.07;102622.09;3583730;40;20297;-79
2021/04/15 11:07:17;;;;;;;3.92;2.28;;;;;;;10.24;29.67;102620.84;3592825;40;20064;-81
2021/04/15 11:09:46;;;;;;;4.80;2.72;;;;;;;10.23;30.51;102612.72;3593799;40;20040;-84
2021/04/15 11:12:29;;;;;;;3.65;2.38;;;;;;;10.30;29.55;102611.41;3585525;40;20275;-83
2021/04/15 11:15:04;;;;;;;4.75;2.22;;;;;;;10.29;30.10;102609.66;3590954;40;20033;-82
2021/04/15 11:17:37;;;;;;;4.00;1.90;;;;;;;10.30;30.47;102603.19;3582692;40;20056;-84
2021/04/15 11:20:21;;;;;;;3.58;2.25;;;;;;;10.33;29.77;102605.75;3601592;40;20050;-82
2021/04/15 11:22:57;;;;;;;4.00;1.90;;;;;;;10.35;30.12;102601.97;3600639;40;20037;-83
2021/04/15 11:25:28;;;;;;;2.65;1.95;;;;;;;10.37;30.82;102596.44;3592614;40;20040;-82
2021/04/15 11:28:01;;;;;;;4.15;2.05;;;;;;;10.40;30.32;102588.91;3593300;40;20409;-83
2021/04/15 11:30:37;;;;;;;3.30;1.90;;;;;;;10.44;29.96;102585.03;3592154;40;20032;-83
2021/04/15 11:33:12;;;;;;;4.25;2.30;;;;;;;10.50;30.35;102589.25;3592225;40;20045;-80
2021/04/15 11:35:40;;;;;;;3.45;2.08;;;;;;;10.54;30.29;102585.34;3583677;40;20366;-81
2021/04/15 11:38:16;;;;;;;4.50;2.13;;;;;;;10.60;29.15;102585.00;3583264;40;20087;-83
2021/04/15 11:40:46;;;;;;;5.40;2.22;;;;;;;10.59;29.74;102585.97;3581893;40;20033;-80
2021/04/15 11:43:25;;;;;;;3.63;1.92;;;;;;;10.61;28.64;102573.09;3582279;40;20319;-82
2021/04/15 11:45:55;;;;;;;3.35;1.80;;;;;;;10.60;30.08;102578.66;3583360;40;20022;-83
2021/04/15 11:48:27;;;;;;;3.97;2.22;;;;;;;10.58;29.04;102581.47;3582574;40;20052;-83
2021/04/15 11:51:11;;;;;;;3.63;1.92;;;;;;;10.56;28.38;102575.19;3584888;40;21097;-82
2021/04/15 11:53:44;;;;;;;3.05;1.75;;;;;;;10.56;29.31;102575.19;3582342;40;20037;-81
2021/04/15 11:56:19;;;;;;;3.77;2.40;;;;;;;10.56;28.99;102574.31;3593153;40;20080;-77
2021/04/15 11:58:47;;;;;;;3.28;2.28;;;;;;;10.57;29.63;102578.81;3577067;40;20048;-76
2021/04/15 12:01:25;;;;;;;3.35;2.05;;;;;;;10.59;28.42;102566.81;3583000;40;20029;-75
2021/04/15 12:03:58;;;;;;;3.90;1.90;;;;;;;10.61;28.29;102569.47;3591235;40;20305;-77
2021/04/15 12:06:29;;;;;;;;;;;;;;;10.33;29.02;102572.94;3590270;40;20036;-79
2021/04/15 12:09:07;;;;;;;2.78;1.60;;;;;;;10.54;29.10;102571.66;3596060;39;19938;-79
2021/04/15 12:11:54;;;;;;;4.50;1.90;;;;;;;10.57;28.01;102579.72;3580027;40;20040;-80
2021/04/15 12:14:22;;;;;;;4.88;2.60;;;;;;;10.49;28.04;102579.28;3585817;40;20063;-75
2021/04/15 12:16:58;;;;;;;4.10;2.15;;;;;;;10.47;27.00;102573.91;3588007;40;20460;-76
2021/04/15 12:19:42;;;;;;;3.63;1.75;;;;;;;10.43;26.63;102577.78;3588949;40;20029;-76
2021/04/15 12:22:19;;;;;;;3.50;2.08;;;;;;;10.40;27.56;102566.13;3586901;40;20492;-77
2021/04/15 12:24:50;;;;;;;4.15;2.00;;;;;;;10.35;28.12;102569.16;3588352;40;20089;-77
2021/04/15 12:27:22;;;;;;;4.00;2.05;;;;;;;10.34;27.76;102567.38;3589416;40;20036;-78
2021/04/15 12:29:58;;;;;;;3.03;1.90;;;;;;;10.31;27.53;102564.81;3587788;40;20043;-74
2021/04/15 12:32:37;;;;;;;3.70;2.03;;;;;;;10.30;27.25;102562.16;3589583;40;20088;-76
2021/04/15 12:35:17;;;;;;;3.63;2.10;;;;;;;10.30;27.24;102564.91;3580156;40;20057;-76